sensor_id;sensor_type;location;lat;lon;timestamp;temperature;humidity
56729;DHT22;42612;52.232;7.560;2023-05-15T00:00:13;20.10;47.80
56729;DHT22;42612;52.232;7.560;2023-05-15T00:02:39;20.10;47.90
56729;DHT22;42612;52.232;7.560;2023-05-15T00:05:07;20.10;47.80
56729;DHT22;42612;52.232;7.560;2023-05-15T00:07:34;20.00;48.20
56729;DHT22;42612;52.232;7.560;2023-05-15T00:10:00;20.00;47.90
56729;DHT22;42612;52.232;7.560;2023-05-15T00:12:26;20.00;47.90
56729;DHT22;42612;52.232;7.560;2023-05-15T00:14:52;19.90;48.00
56729;DHT22;42612;52.232;7.560;2023-05-15T00:17:17;19.90;48.10
56729;DHT22;42612;52.232;7.560;2023-05-15T00:19:43;19.90;48.10
56729;DHT22;42612;52.232;7.560;2023-05-15T00:22:09;19.90;48.20
56729;DHT22;42612;52.232;7.560;2023-05-15T00:24:35;19.80;48.30
56729;DHT22;42612;52.232;7.560;2023-05-15T00:27:01;19.80;48.30
56729;DHT22;42612;52.232;7.560;2023-05-15T00:29:27;19.80;48.40
56729;DHT22;42612;52.232;7.560;2023-05-15T00:31:53;19.70;48.40
56729;DHT22;42612;52.232;7.560;2023-05-15T00:34:20;19.70;48.50
56729;DHT22;42612;52.232;7.560;2023-05-15T00:36:45;19.70;48.70
56729;DHT22;42612;52.232;7.560;2023-05-15T00:39:11;19.70;48.90
56729;DHT22;42612;52.232;7.560;2023-05-15T00:41:37;19.70;48.90
56729;DHT22;42612;52.232;7.560;2023-05-15T00:44:06;19.70;49.10
56729;DHT22;42612;52.232;7.560;2023-05-15T00:46:31;19.70;49.20
56729;DHT22;42612;52.232;7.560;2023-05-15T00:48:59;19.70;49.20
56729;DHT22;42612;52.232;7.560;2023-05-15T00:51:25;19.70;49.40
56729;DHT22;42612;52.232;7.560;2023-05-15T00:53:51;19.70;49.10
56729;DHT22;42612;52.232;7.560;2023-05-15T00:56:18;19.70;49.20
56729;DHT22;42612;52.232;7.560;2023-05-15T00:58:45;19.60;49.40
56729;DHT22;42612;52.232;7.560;2023-05-15T01:01:15;19.60;49.40
56729;DHT22;42612;52.232;7.560;2023-05-15T01:03:42;19.60;49.50
56729;DHT22;42612;52.232;7.560;2023-05-15T01:06:09;19.60;49.60
56729;DHT22;42612;52.232;7.560;2023-05-15T01:08:43;19.60;49.50
56729;DHT22;42612;52.232;7.560;2023-05-15T01:11:15;19.60;50.10
56729;DHT22;42612;52.232;7.560;2023-05-15T01:13:42;19.60;49.90
56729;DHT22;42612;52.232;7.560;2023-05-15T01:16:09;19.50;49.70
56729;DHT22;42612;52.232;7.560;2023-05-15T01:18:35;19.50;49.90
56729;DHT22;42612;52.232;7.560;2023-05-15T01:29:31;19.40;50.80
56729;DHT22;42612;52.232;7.560;2023-05-15T01:32:08;19.40;51.20
56729;DHT22;42612;52.232;7.560;2023-05-15T01:34:47;19.40;50.70
56729;DHT22;42612;52.232;7.560;2023-05-15T01:37:31;19.40;50.90
56729;DHT22;42612;52.232;7.560;2023-05-15T01:40:03;19.40;50.50
56729;DHT22;42612;52.232;7.560;2023-05-15T01:42:33;19.40;50.90
56729;DHT22;42612;52.232;7.560;2023-05-15T01:45:00;19.40;50.70
56729;DHT22;42612;52.232;7.560;2023-05-15T01:47:53;19.40;50.90
56729;DHT22;42612;52.232;7.560;2023-05-15T01:50:19;19.40;50.70
56729;DHT22;42612;52.232;7.560;2023-05-15T01:52:49;19.30;50.60
56729;DHT22;42612;52.232;7.560;2023-05-15T01:55:17;19.30;50.90
56729;DHT22;42612;52.232;7.560;2023-05-15T01:57:46;19.30;51.00
56729;DHT22;42612;52.232;7.560;2023-05-15T02:00:14;19.20;51.10
56729;DHT22;42612;52.232;7.560;2023-05-15T02:02:41;19.20;51.30
56729;DHT22;42612;52.232;7.560;2023-05-15T02:05:08;19.20;51.30
56729;DHT22;42612;52.232;7.560;2023-05-15T02:07:34;19.20;51.40
56729;DHT22;42612;52.232;7.560;2023-05-15T02:10:01;19.10;51.30
56729;DHT22;42612;52.232;7.560;2023-05-15T02:12:27;19.10;51.40
56729;DHT22;42612;52.232;7.560;2023-05-15T02:14:54;19.00;51.40
56729;DHT22;42612;52.232;7.560;2023-05-15T02:17:22;19.00;51.50
56729;DHT22;42612;52.232;7.560;2023-05-15T02:19:48;19.00;51.60
56729;DHT22;42612;52.232;7.560;2023-05-15T02:22:14;19.00;51.80
56729;DHT22;42612;52.232;7.560;2023-05-15T02:24:40;19.00;51.90
56729;DHT22;42612;52.232;7.560;2023-05-15T02:27:25;18.90;52.00
56729;DHT22;42612;52.232;7.560;2023-05-15T02:30:02;18.90;52.90
56729;DHT22;42612;52.232;7.560;2023-05-15T02:32:36;18.90;52.60
56729;DHT22;42612;52.232;7.560;2023-05-15T02:35:32;18.90;52.30
56729;DHT22;42612;52.232;7.560;2023-05-15T02:38:08;18.80;52.60
56729;DHT22;42612;52.232;7.560;2023-05-15T02:40:37;18.80;52.10
56729;DHT22;42612;52.232;7.560;2023-05-15T02:43:04;18.80;52.00
56729;DHT22;42612;52.232;7.560;2023-05-15T02:45:31;18.70;52.00
56729;DHT22;42612;52.232;7.560;2023-05-15T02:47:58;18.70;52.30
56729;DHT22;42612;52.232;7.560;2023-05-15T02:50:25;18.70;52.30
56729;DHT22;42612;52.232;7.560;2023-05-15T02:52:50;18.70;52.40
56729;DHT22;42612;52.232;7.560;2023-05-15T02:55:26;18.70;52.50
56729;DHT22;42612;52.232;7.560;2023-05-15T02:57:51;18.60;52.50
56729;DHT22;42612;52.232;7.560;2023-05-15T03:00:17;18.60;52.70
56729;DHT22;42612;52.232;7.560;2023-05-15T03:02:43;18.60;53.40
56729;DHT22;42612;52.232;7.560;2023-05-15T03:05:09;18.60;52.80
56729;DHT22;42612;52.232;7.560;2023-05-15T03:07:34;18.60;52.90
56729;DHT22;42612;52.232;7.560;2023-05-15T03:10:00;18.60;53.00
56729;DHT22;42612;52.232;7.560;2023-05-15T03:12:26;18.60;53.00
56729;DHT22;42612;52.232;7.560;2023-05-15T03:14:51;18.60;53.10
56729;DHT22;42612;52.232;7.560;2023-05-15T03:17:17;18.50;53.10
56729;DHT22;42612;52.232;7.560;2023-05-15T03:19:43;18.50;53.10
56729;DHT22;42612;52.232;7.560;2023-05-15T03:22:08;18.50;53.20
56729;DHT22;42612;52.232;7.560;2023-05-15T03:24:34;18.50;53.30
56729;DHT22;42612;52.232;7.560;2023-05-15T03:27:00;18.50;53.30
56729;DHT22;42612;52.232;7.560;2023-05-15T03:29:25;18.50;53.40
56729;DHT22;42612;52.232;7.560;2023-05-15T03:31:51;18.50;53.50
56729;DHT22;42612;52.232;7.560;2023-05-15T03:34:17;18.50;53.50
56729;DHT22;42612;52.232;7.560;2023-05-15T03:36:42;18.50;53.50
56729;DHT22;42612;52.232;7.560;2023-05-15T03:39:08;18.50;53.60
56729;DHT22;42612;52.232;7.560;2023-05-15T03:41:34;18.40;53.60
56729;DHT22;42612;52.232;7.560;2023-05-15T03:43:59;18.40;53.60
56729;DHT22;42612;52.232;7.560;2023-05-15T03:46:25;18.40;53.60
56729;DHT22;42612;52.232;7.560;2023-05-15T03:48:51;18.40;53.60
56729;DHT22;42612;52.232;7.560;2023-05-15T03:51:18;18.40;53.80
56729;DHT22;42612;52.232;7.560;2023-05-15T03:53:44;18.40;54.10
56729;DHT22;42612;52.232;7.560;2023-05-15T03:56:10;18.40;53.50
56729;DHT22;42612;52.232;7.560;2023-05-15T03:58:36;18.40;53.70
56729;DHT22;42612;52.232;7.560;2023-05-15T04:01:01;18.40;53.90
56729;DHT22;42612;52.232;7.560;2023-05-15T04:03:27;18.40;54.00
56729;DHT22;42612;52.232;7.560;2023-05-15T04:05:53;18.40;54.10
56729;DHT22;42612;52.232;7.560;2023-05-15T04:08:18;18.40;54.30
56729;DHT22;42612;52.232;7.560;2023-05-15T04:10:44;18.40;55.00
56729;DHT22;42612;52.232;7.560;2023-05-15T04:13:10;18.40;54.30
56729;DHT22;42612;52.232;7.560;2023-05-15T04:15:35;18.40;54.40
56729;DHT22;42612;52.232;7.560;2023-05-15T04:18:01;18.40;54.50
56729;DHT22;42612;52.232;7.560;2023-05-15T04:20:27;18.40;54.50
56729;DHT22;42612;52.232;7.560;2023-05-15T04:22:52;18.30;54.40
56729;DHT22;42612;52.232;7.560;2023-05-15T04:25:18;18.30;54.40
56729;DHT22;42612;52.232;7.560;2023-05-15T04:27:45;18.30;54.50
56729;DHT22;42612;52.232;7.560;2023-05-15T04:30:11;18.30;54.60
56729;DHT22;42612;52.232;7.560;2023-05-15T04:32:38;18.20;54.60
56729;DHT22;42612;52.232;7.560;2023-05-15T04:35:06;18.20;54.70
56729;DHT22;42612;52.232;7.560;2023-05-15T04:37:38;18.20;54.80
56729;DHT22;42612;52.232;7.560;2023-05-15T04:40:05;18.20;54.80
56729;DHT22;42612;52.232;7.560;2023-05-15T04:42:32;18.20;54.90
56729;DHT22;42612;52.232;7.560;2023-05-15T04:44:58;18.20;54.90
56729;DHT22;42612;52.232;7.560;2023-05-15T04:47:24;18.10;55.00
56729;DHT22;42612;52.232;7.560;2023-05-15T04:49:50;18.20;55.00
56729;DHT22;42612;52.232;7.560;2023-05-15T04:52:16;18.10;55.10
56729;DHT22;42612;52.232;7.560;2023-05-15T04:54:42;18.20;55.20
56729;DHT22;42612;52.232;7.560;2023-05-15T04:57:08;18.10;55.10
56729;DHT22;42612;52.232;7.560;2023-05-15T04:59:33;18.20;55.20
56729;DHT22;42612;52.232;7.560;2023-05-15T05:02:00;18.20;55.20
56729;DHT22;42612;52.232;7.560;2023-05-15T05:04:26;18.20;55.20
56729;DHT22;42612;52.232;7.560;2023-05-15T05:06:51;18.20;55.30
56729;DHT22;42612;52.232;7.560;2023-05-15T05:09:18;18.20;55.30
56729;DHT22;42612;52.232;7.560;2023-05-15T05:11:45;18.10;55.30
56729;DHT22;42612;52.232;7.560;2023-05-15T05:14:13;18.20;55.40
56729;DHT22;42612;52.232;7.560;2023-05-15T05:16:39;18.10;55.40
56729;DHT22;42612;52.232;7.560;2023-05-15T05:19:05;18.20;55.90
56729;DHT22;42612;52.232;7.560;2023-05-15T05:21:31;18.20;55.20
56729;DHT22;42612;52.232;7.560;2023-05-15T05:23:58;18.10;55.30
56729;DHT22;42612;52.232;7.560;2023-05-15T05:26:24;18.10;55.40
56729;DHT22;42612;52.232;7.560;2023-05-15T05:28:50;18.10;55.40
56729;DHT22;42612;52.232;7.560;2023-05-15T05:31:16;18.10;55.40
56729;DHT22;42612;52.232;7.560;2023-05-15T05:33:42;18.10;55.50
56729;DHT22;42612;52.232;7.560;2023-05-15T05:36:08;18.10;55.70
56729;DHT22;42612;52.232;7.560;2023-05-15T05:38:35;18.10;55.80
56729;DHT22;42612;52.232;7.560;2023-05-15T05:41:01;18.10;55.90
56729;DHT22;42612;52.232;7.560;2023-05-15T05:43:27;18.10;55.90
56729;DHT22;42612;52.232;7.560;2023-05-15T05:45:53;18.10;55.80
56729;DHT22;42612;52.232;7.560;2023-05-15T05:48:19;18.10;55.80
56729;DHT22;42612;52.232;7.560;2023-05-15T05:50:44;18.10;55.90
56729;DHT22;42612;52.232;7.560;2023-05-15T05:53:10;18.10;55.80
56729;DHT22;42612;52.232;7.560;2023-05-15T05:55:36;18.10;55.90
56729;DHT22;42612;52.232;7.560;2023-05-15T05:58:02;18.00;56.00
56729;DHT22;42612;52.232;7.560;2023-05-15T06:00:28;18.10;56.10
56729;DHT22;42612;52.232;7.560;2023-05-15T06:02:58;18.00;56.20
56729;DHT22;42612;52.232;7.560;2023-05-15T06:05:27;18.00;56.60
56729;DHT22;42612;52.232;7.560;2023-05-15T06:07:53;18.00;56.70
56729;DHT22;42612;52.232;7.560;2023-05-15T06:10:19;18.00;56.40
56729;DHT22;42612;52.232;7.560;2023-05-15T06:12:46;18.00;56.40
56729;DHT22;42612;52.232;7.560;2023-05-15T06:15:12;18.00;56.20
56729;DHT22;42612;52.232;7.560;2023-05-15T06:17:38;18.00;56.20
56729;DHT22;42612;52.232;7.560;2023-05-15T06:20:04;18.00;56.30
56729;DHT22;42612;52.232;7.560;2023-05-15T06:22:35;17.90;56.30
56729;DHT22;42612;52.232;7.560;2023-05-15T06:25:02;17.90;56.40
56729;DHT22;42612;52.232;7.560;2023-05-15T06:27:29;17.90;56.50
56729;DHT22;42612;52.232;7.560;2023-05-15T06:29:55;17.90;56.30
56729;DHT22;42612;52.232;7.560;2023-05-15T06:32:20;17.90;56.40
56729;DHT22;42612;52.232;7.560;2023-05-15T06:34:46;17.90;56.40
56729;DHT22;42612;52.232;7.560;2023-05-15T06:37:12;17.90;56.50
56729;DHT22;42612;52.232;7.560;2023-05-15T06:39:38;17.90;56.60
56729;DHT22;42612;52.232;7.560;2023-05-15T06:42:04;17.90;56.60
56729;DHT22;42612;52.232;7.560;2023-05-15T06:44:30;17.90;56.70
56729;DHT22;42612;52.232;7.560;2023-05-15T06:46:57;17.90;56.80
56729;DHT22;42612;52.232;7.560;2023-05-15T06:49:23;18.00;56.80
56729;DHT22;42612;52.232;7.560;2023-05-15T06:51:49;18.00;56.80
56729;DHT22;42612;52.232;7.560;2023-05-15T06:54:16;18.00;56.70
56729;DHT22;42612;52.232;7.560;2023-05-15T06:56:41;18.00;56.70
56729;DHT22;42612;52.232;7.560;2023-05-15T06:59:07;18.00;56.80
56729;DHT22;42612;52.232;7.560;2023-05-15T07:01:33;18.00;56.80
56729;DHT22;42612;52.232;7.560;2023-05-15T07:03:58;18.00;56.80
56729;DHT22;42612;52.232;7.560;2023-05-15T07:06:24;18.00;56.60
56729;DHT22;42612;52.232;7.560;2023-05-15T07:08:51;18.00;56.40
56729;DHT22;42612;52.232;7.560;2023-05-15T07:11:17;18.00;56.50
56729;DHT22;42612;52.232;7.560;2023-05-15T07:13:42;18.00;56.60
56729;DHT22;42612;52.232;7.560;2023-05-15T07:16:08;18.00;56.70
56729;DHT22;42612;52.232;7.560;2023-05-15T07:18:34;18.00;56.60
56729;DHT22;42612;52.232;7.560;2023-05-15T07:21:00;18.00;56.60
56729;DHT22;42612;52.232;7.560;2023-05-15T07:23:26;17.90;56.50
56729;DHT22;42612;52.232;7.560;2023-05-15T07:25:53;17.90;56.70
56729;DHT22;42612;52.232;7.560;2023-05-15T07:28:19;17.90;56.90
56729;DHT22;42612;52.232;7.560;2023-05-15T07:30:45;17.90;56.80
56729;DHT22;42612;52.232;7.560;2023-05-15T07:33:11;17.90;56.70
56729;DHT22;42612;52.232;7.560;2023-05-15T07:35:36;17.90;56.60
56729;DHT22;42612;52.232;7.560;2023-05-15T07:38:02;17.90;56.40
56729;DHT22;42612;52.232;7.560;2023-05-15T07:40:28;17.90;56.40
56729;DHT22;42612;52.232;7.560;2023-05-15T07:42:54;17.90;56.30
56729;DHT22;42612;52.232;7.560;2023-05-15T07:45:20;17.90;56.40
56729;DHT22;42612;52.232;7.560;2023-05-15T07:47:47;17.80;56.40
56729;DHT22;42612;52.232;7.560;2023-05-15T07:50:14;17.80;56.50
56729;DHT22;42612;52.232;7.560;2023-05-15T07:52:40;17.80;56.50
56729;DHT22;42612;52.232;7.560;2023-05-15T07:55:07;17.80;56.60
56729;DHT22;42612;52.232;7.560;2023-05-15T07:57:33;17.80;56.70
56729;DHT22;42612;52.232;7.560;2023-05-15T08:00:00;17.90;56.80
56729;DHT22;42612;52.232;7.560;2023-05-15T08:02:31;17.90;56.60
56729;DHT22;42612;52.232;7.560;2023-05-15T08:04:56;17.90;56.60
56729;DHT22;42612;52.232;7.560;2023-05-15T08:07:23;17.90;56.50
56729;DHT22;42612;52.232;7.560;2023-05-15T08:09:48;17.90;56.60
56729;DHT22;42612;52.232;7.560;2023-05-15T08:12:23;18.00;56.50
56729;DHT22;42612;52.232;7.560;2023-05-15T08:14:50;18.00;56.60
56729;DHT22;42612;52.232;7.560;2023-05-15T08:17:16;18.00;56.40
56729;DHT22;42612;52.232;7.560;2023-05-15T08:19:43;18.00;56.30
56729;DHT22;42612;52.232;7.560;2023-05-15T08:22:09;18.10;56.50
56729;DHT22;42612;52.232;7.560;2023-05-15T08:24:35;18.10;56.30
56729;DHT22;42612;52.232;7.560;2023-05-15T08:27:00;18.20;56.30
56729;DHT22;42612;52.232;7.560;2023-05-15T08:29:26;18.20;56.20
56729;DHT22;42612;52.232;7.560;2023-05-15T08:31:52;18.10;56.40
56729;DHT22;42612;52.232;7.560;2023-05-15T08:34:17;18.20;56.40
56729;DHT22;42612;52.232;7.560;2023-05-15T08:36:43;18.20;56.50
56729;DHT22;42612;52.232;7.560;2023-05-15T08:39:10;18.20;56.60
56729;DHT22;42612;52.232;7.560;2023-05-15T08:44:27;18.30;56.70
56729;DHT22;42612;52.232;7.560;2023-05-15T08:46:54;18.30;56.20
56729;DHT22;42612;52.232;7.560;2023-05-15T08:52:06;18.30;56.80
56729;DHT22;42612;52.232;7.560;2023-05-15T08:54:32;18.30;56.30
56729;DHT22;42612;52.232;7.560;2023-05-15T08:56:59;18.30;56.30
56729;DHT22;42612;52.232;7.560;2023-05-15T08:59:26;18.40;56.30
56729;DHT22;42612;52.232;7.560;2023-05-15T09:01:52;18.40;56.20
56729;DHT22;42612;52.232;7.560;2023-05-15T09:04:19;18.40;56.10
56729;DHT22;42612;52.232;7.560;2023-05-15T09:06:46;18.40;56.10
56729;DHT22;42612;52.232;7.560;2023-05-15T09:09:12;18.40;55.90
56729;DHT22;42612;52.232;7.560;2023-05-15T09:11:42;18.40;55.70
56729;DHT22;42612;52.232;7.560;2023-05-15T09:14:09;18.40;55.90
56729;DHT22;42612;52.232;7.560;2023-05-15T09:16:35;18.40;55.90
56729;DHT22;42612;52.232;7.560;2023-05-15T09:19:02;18.40;55.80
56729;DHT22;42612;52.232;7.560;2023-05-15T09:21:29;18.30;55.80
56729;DHT22;42612;52.232;7.560;2023-05-15T09:24:18;18.30;56.00
56729;DHT22;42612;52.232;7.560;2023-05-15T09:27:06;18.30;56.40
56729;DHT22;42612;52.232;7.560;2023-05-15T09:29:34;18.30;56.40
56729;DHT22;42612;52.232;7.560;2023-05-15T09:32:12;18.30;56.00
56729;DHT22;42612;52.232;7.560;2023-05-15T09:34:40;18.30;56.10
56729;DHT22;42612;52.232;7.560;2023-05-15T09:37:09;18.30;56.20
56729;DHT22;42612;52.232;7.560;2023-05-15T09:39:43;18.30;56.30
56729;DHT22;42612;52.232;7.560;2023-05-15T09:42:10;18.40;56.90
56729;DHT22;42612;52.232;7.560;2023-05-15T09:44:43;18.40;56.50
56729;DHT22;42612;52.232;7.560;2023-05-15T09:47:11;18.50;56.90
56729;DHT22;42612;52.232;7.560;2023-05-15T09:49:38;18.50;56.70
56729;DHT22;42612;52.232;7.560;2023-05-15T09:52:08;18.50;56.70
56729;DHT22;42612;52.232;7.560;2023-05-15T09:54:34;18.60;56.60
56729;DHT22;42612;52.232;7.560;2023-05-15T09:57:12;18.70;56.50
56729;DHT22;42612;52.232;7.560;2023-05-15T09:59:43;18.80;56.90
56729;DHT22;42612;52.232;7.560;2023-05-15T10:02:28;18.80;56.60
56729;DHT22;42612;52.232;7.560;2023-05-15T10:04:58;18.90;56.80
56729;DHT22;42612;52.232;7.560;2023-05-15T10:09:57;19.10;56.50
56729;DHT22;42612;52.232;7.560;2023-05-15T10:12:24;19.10;56.10
56729;DHT22;42612;52.232;7.560;2023-05-15T10:14:51;19.20;56.00
56729;DHT22;42612;52.232;7.560;2023-05-15T10:17:19;19.30;55.80
56729;DHT22;42612;52.232;7.560;2023-05-15T10:19:48;19.40;55.80
56729;DHT22;42612;52.232;7.560;2023-05-15T10:22:21;19.40;55.60
56729;DHT22;42612;52.232;7.560;2023-05-15T10:25:01;19.50;56.00
56729;DHT22;42612;52.232;7.560;2023-05-15T10:27:29;19.60;55.40
56729;DHT22;42612;52.232;7.560;2023-05-15T10:29:55;19.70;55.70
56729;DHT22;42612;52.232;7.560;2023-05-15T10:32:22;19.80;55.60
56729;DHT22;42612;52.232;7.560;2023-05-15T10:34:49;19.90;55.20
56729;DHT22;42612;52.232;7.560;2023-05-15T10:37:17;20.00;55.50
56729;DHT22;42612;52.232;7.560;2023-05-15T10:39:43;20.10;55.20
56729;DHT22;42612;52.232;7.560;2023-05-15T10:42:10;20.20;55.00
56729;DHT22;42612;52.232;7.560;2023-05-15T10:44:37;20.30;54.80
56729;DHT22;42612;52.232;7.560;2023-05-15T10:47:03;20.50;54.70
56729;DHT22;42612;52.232;7.560;2023-05-15T10:49:30;20.60;54.60
56729;DHT22;42612;52.232;7.560;2023-05-15T10:51:59;20.70;54.50
56729;DHT22;42612;52.232;7.560;2023-05-15T10:54:24;20.80;54.00
56729;DHT22;42612;52.232;7.560;2023-05-15T10:56:50;21.00;54.20
56729;DHT22;42612;52.232;7.560;2023-05-15T10:59:20;21.00;54.00
56729;DHT22;42612;52.232;7.560;2023-05-15T11:01:45;21.20;53.70
56729;DHT22;42612;52.232;7.560;2023-05-15T11:04:16;21.30;53.40
56729;DHT22;42612;52.232;7.560;2023-05-15T11:06:46;21.40;53.20
56729;DHT22;42612;52.232;7.560;2023-05-15T11:09:31;21.40;53.10
56729;DHT22;42612;52.232;7.560;2023-05-15T11:12:00;21.50;53.30
56729;DHT22;42612;52.232;7.560;2023-05-15T11:14:28;21.60;52.80
56729;DHT22;42612;52.232;7.560;2023-05-15T11:22:22;21.70;52.00
56729;DHT22;42612;52.232;7.560;2023-05-15T11:24:58;21.70;51.00
56729;DHT22;42612;52.232;7.560;2023-05-15T11:27:41;21.80;51.80
56729;DHT22;42612;52.232;7.560;2023-05-15T11:35:39;21.90;52.10
56729;DHT22;42612;52.232;7.560;2023-05-15T11:38:18;21.90;51.40
56729;DHT22;42612;52.232;7.560;2023-05-15T11:40:57;22.00;50.90
56729;DHT22;42612;52.232;7.560;2023-05-15T11:43:43;22.10;51.20
56729;DHT22;42612;52.232;7.560;2023-05-15T11:46:10;22.20;51.30
56729;DHT22;42612;52.232;7.560;2023-05-15T11:51:22;22.40;51.60
56729;DHT22;42612;52.232;7.560;2023-05-15T11:53:50;22.50;51.30
56729;DHT22;42612;52.232;7.560;2023-05-15T11:56:25;22.60;51.90
56729;DHT22;42612;52.232;7.560;2023-05-15T11:58:57;22.70;51.00
56729;DHT22;42612;52.232;7.560;2023-05-15T12:01:24;22.80;50.40
56729;DHT22;42612;52.232;7.560;2023-05-15T12:03:50;22.80;50.40
56729;DHT22;42612;52.232;7.560;2023-05-15T12:06:18;23.00;49.80
56729;DHT22;42612;52.232;7.560;2023-05-15T12:08:50;23.10;49.50
56729;DHT22;42612;52.232;7.560;2023-05-15T12:11:21;23.10;48.40
56729;DHT22;42612;52.232;7.560;2023-05-15T12:13:50;23.20;48.60
56729;DHT22;42612;52.232;7.560;2023-05-15T12:16:17;23.20;48.50
56729;DHT22;42612;52.232;7.560;2023-05-15T12:18:46;23.30;48.80
56729;DHT22;42612;52.232;7.560;2023-05-15T12:21:11;23.30;48.40
56729;DHT22;42612;52.232;7.560;2023-05-15T12:23:37;23.40;48.90
56729;DHT22;42612;52.232;7.560;2023-05-15T12:26:03;23.50;48.30
56729;DHT22;42612;52.232;7.560;2023-05-15T12:28:31;23.60;48.20
56729;DHT22;42612;52.232;7.560;2023-05-15T12:30:59;23.60;47.60
56729;DHT22;42612;52.232;7.560;2023-05-15T12:33:24;23.70;47.60
56729;DHT22;42612;52.232;7.560;2023-05-15T12:35:53;23.80;47.40
56729;DHT22;42612;52.232;7.560;2023-05-15T12:38:21;23.80;46.00
56729;DHT22;42612;52.232;7.560;2023-05-15T12:40:51;23.90;45.80
56729;DHT22;42612;52.232;7.560;2023-05-15T12:43:24;23.90;45.80
56729;DHT22;42612;52.232;7.560;2023-05-15T12:45:54;24.00;44.80
56729;DHT22;42612;52.232;7.560;2023-05-15T12:48:21;24.10;45.80
56729;DHT22;42612;52.232;7.560;2023-05-15T12:50:47;24.20;45.70
56729;DHT22;42612;52.232;7.560;2023-05-15T12:53:13;24.30;46.10
56729;DHT22;42612;52.232;7.560;2023-05-15T12:55:40;24.40;45.00
56729;DHT22;42612;52.232;7.560;2023-05-15T12:58:08;24.50;45.40
56729;DHT22;42612;52.232;7.560;2023-05-15T13:00:44;24.50;45.00
56729;DHT22;42612;52.232;7.560;2023-05-15T13:03:11;24.60;44.20
56729;DHT22;42612;52.232;7.560;2023-05-15T13:05:38;24.70;44.00
56729;DHT22;42612;52.232;7.560;2023-05-15T13:08:07;24.70;44.00
56729;DHT22;42612;52.232;7.560;2023-05-15T13:10:41;24.80;43.70
56729;DHT22;42612;52.232;7.560;2023-05-15T13:13:07;24.90;42.50
56729;DHT22;42612;52.232;7.560;2023-05-15T13:15:35;25.00;43.60
56729;DHT22;42612;52.232;7.560;2023-05-15T13:18:03;25.00;42.60
56729;DHT22;42612;52.232;7.560;2023-05-15T13:20:33;25.10;42.70
56729;DHT22;42612;52.232;7.560;2023-05-15T13:23:17;25.10;42.40
56729;DHT22;42612;52.232;7.560;2023-05-15T13:25:44;25.10;41.70
56729;DHT22;42612;52.232;7.560;2023-05-15T13:28:10;25.20;42.40
56729;DHT22;42612;52.232;7.560;2023-05-15T13:30:37;25.20;41.30
56729;DHT22;42612;52.232;7.560;2023-05-15T13:33:06;25.10;41.40
56729;DHT22;42612;52.232;7.560;2023-05-15T13:35:34;25.10;41.40
56729;DHT22;42612;52.232;7.560;2023-05-15T13:38:00;25.10;41.20
56729;DHT22;42612;52.232;7.560;2023-05-15T13:40:26;25.10;41.00
56729;DHT22;42612;52.232;7.560;2023-05-15T13:42:52;25.10;40.80
56729;DHT22;42612;52.232;7.560;2023-05-15T13:45:18;25.10;40.40
56729;DHT22;42612;52.232;7.560;2023-05-15T13:47:44;25.10;39.90
56729;DHT22;42612;52.232;7.560;2023-05-15T13:50:11;25.10;40.10
56729;DHT22;42612;52.232;7.560;2023-05-15T13:52:39;25.00;40.10
56729;DHT22;42612;52.232;7.560;2023-05-15T13:55:06;25.00;39.70
56729;DHT22;42612;52.232;7.560;2023-05-15T13:57:38;24.90;39.80
56729;DHT22;42612;52.232;7.560;2023-05-15T14:00:06;24.90;40.00
56729;DHT22;42612;52.232;7.560;2023-05-15T14:02:40;24.90;39.70
56729;DHT22;42612;52.232;7.560;2023-05-15T14:05:08;24.90;39.70
56729;DHT22;42612;52.232;7.560;2023-05-15T14:07:35;24.90;40.40
56729;DHT22;42612;52.232;7.560;2023-05-15T14:10:02;24.90;39.90
56729;DHT22;42612;52.232;7.560;2023-05-15T14:12:28;24.90;40.00
56729;DHT22;42612;52.232;7.560;2023-05-15T14:14:54;24.90;39.70
56729;DHT22;42612;52.232;7.560;2023-05-15T14:17:21;24.80;39.20
56729;DHT22;42612;52.232;7.560;2023-05-15T14:19:47;24.80;39.90
56729;DHT22;42612;52.232;7.560;2023-05-15T14:22:13;24.70;40.20
56729;DHT22;42612;52.232;7.560;2023-05-15T14:24:39;24.70;40.40
56729;DHT22;42612;52.232;7.560;2023-05-15T14:27:05;24.70;40.50
56729;DHT22;42612;52.232;7.560;2023-05-15T14:29:31;24.60;41.30
56729;DHT22;42612;52.232;7.560;2023-05-15T14:31:57;24.50;40.60
56729;DHT22;42612;52.232;7.560;2023-05-15T14:34:23;24.40;41.10
56729;DHT22;42612;52.232;7.560;2023-05-15T14:36:48;24.40;41.70
56729;DHT22;42612;52.232;7.560;2023-05-15T14:39:15;24.40;41.70
56729;DHT22;42612;52.232;7.560;2023-05-15T14:41:41;24.40;41.90
56729;DHT22;42612;52.232;7.560;2023-05-15T14:44:09;24.40;41.60
56729;DHT22;42612;52.232;7.560;2023-05-15T14:46:34;24.40;41.90
56729;DHT22;42612;52.232;7.560;2023-05-15T14:49:06;24.50;41.70
56729;DHT22;42612;52.232;7.560;2023-05-15T14:51:31;24.50;41.60
56729;DHT22;42612;52.232;7.560;2023-05-15T14:53:57;24.60;41.80
56729;DHT22;42612;52.232;7.560;2023-05-15T14:56:23;24.60;41.80
56729;DHT22;42612;52.232;7.560;2023-05-15T14:58:50;24.70;41.20
56729;DHT22;42612;52.232;7.560;2023-05-15T15:01:18;24.70;40.90
56729;DHT22;42612;52.232;7.560;2023-05-15T15:03:44;24.80;41.00
56729;DHT22;42612;52.232;7.560;2023-05-15T15:06:10;24.80;41.00
56729;DHT22;42612;52.232;7.560;2023-05-15T15:08:35;24.80;41.10
56729;DHT22;42612;52.232;7.560;2023-05-15T15:11:01;24.80;40.50
56729;DHT22;42612;52.232;7.560;2023-05-15T15:13:27;24.80;40.60
56729;DHT22;42612;52.232;7.560;2023-05-15T15:15:55;24.80;40.20
56729;DHT22;42612;52.232;7.560;2023-05-15T15:18:21;24.80;40.40
56729;DHT22;42612;52.232;7.560;2023-05-15T15:20:47;24.90;40.20
56729;DHT22;42612;52.232;7.560;2023-05-15T15:23:13;24.90;40.10
56729;DHT22;42612;52.232;7.560;2023-05-15T15:25:39;24.90;40.10
56729;DHT22;42612;52.232;7.560;2023-05-15T15:28:05;24.90;40.10
56729;DHT22;42612;52.232;7.560;2023-05-15T15:30:31;24.90;39.90
56729;DHT22;42612;52.232;7.560;2023-05-15T15:32:56;24.90;39.80
56729;DHT22;42612;52.232;7.560;2023-05-15T15:35:23;25.00;39.90
56729;DHT22;42612;52.232;7.560;2023-05-15T15:37:49;25.00;39.80
56729;DHT22;42612;52.232;7.560;2023-05-15T15:40:16;25.00;39.60
56729;DHT22;42612;52.232;7.560;2023-05-15T15:42:42;25.10;39.80
56729;DHT22;42612;52.232;7.560;2023-05-15T15:45:07;25.10;39.70
56729;DHT22;42612;52.232;7.560;2023-05-15T15:47:33;25.10;39.30
56729;DHT22;42612;52.232;7.560;2023-05-15T15:49:59;25.10;39.40
56729;DHT22;42612;52.232;7.560;2023-05-15T15:52:25;25.20;39.40
56729;DHT22;42612;52.232;7.560;2023-05-15T15:54:51;25.10;39.10
56729;DHT22;42612;52.232;7.560;2023-05-15T15:57:18;25.20;39.30
56729;DHT22;42612;52.232;7.560;2023-05-15T15:59:45;25.20;39.00
56729;DHT22;42612;52.232;7.560;2023-05-15T16:02:12;25.30;38.90